sensor_id;sensor_type;location;lat;lon;timestamp;P1;durP1;ratioP1;P2;durP2;ratioP2
78960;SDS011;68362;45.970;12.646;2023-03-31T00:00:26;17.70;;;10.65;;
78960;SDS011;68362;45.970;12.646;2023-03-31T00:01:45;17.15;;;10.75;;
78960;SDS011;68362;45.970;12.646;2023-03-31T00:02:47;19.48;;;10.93;;
78960;SDS011;68362;45.970;12.646;2023-03-31T00:03:49;14.65;;;10.25;;
78960;SDS011;68362;45.970;12.646;2023-03-31T00:04:51;16.52;;;11.93;;
78960;SDS011;68362;45.970;12.646;2023-03-31T00:05:57;17.50;;;11.23;;
78960;SDS011;68362;45.970;12.646;2023-03-31T00:06:59;21.33;;;11.25;;
78960;SDS011;68362;45.970;12.646;2023-03-31T00:08:01;17.83;;;11.05;;
78960;SDS011;68362;45.970;12.646;2023-03-31T00:09:04;16.25;;;10.63;;
78960;SDS011;68362;45.970;12.646;2023-03-31T00:10:10;20.58;;;11.80;;
78960;SDS011;68362;45.970;12.646;2023-03-31T00:11:20;16.10;;;11.30;;
78960;SDS011;68362;45.970;12.646;2023-03-31T00:12:23;17.05;;;11.73;;
78960;SDS011;68362;45.970;12.646;2023-03-31T00:13:25;16.95;;;11.15;;
78960;SDS011;68362;45.970;12.646;2023-03-31T00:14:27;16.30;;;10.82;;
78960;SDS011;68362;45.970;12.646;2023-03-31T00:15:29;18.35;;;11.52;;
78960;SDS011;68362;45.970;12.646;2023-03-31T00:16:35;17.00;;;9.75;;
78960;SDS011;68362;45.970;12.646;2023-03-31T00:17:38;17.02;;;10.93;;
78960;SDS011;68362;45.970;12.646;2023-03-31T00:18:41;19.70;;;12.13;;
78960;SDS011;68362;45.970;12.646;2023-03-31T00:19:48;18.55;;;10.98;;
78960;SDS011;68362;45.970;12.646;2023-03-31T00:20:51;19.23;;;12.35;;
78960;SDS011;68362;45.970;12.646;2023-03-31T00:21:54;18.02;;;11.55;;
78960;SDS011;68362;45.970;12.646;2023-03-31T00:22:56;17.58;;;11.57;;
78960;SDS011;68362;45.970;12.646;2023-03-31T00:24:00;20.25;;;11.43;;
78960;SDS011;68362;45.970;12.646;2023-03-31T00:25:04;20.48;;;12.98;;
78960;SDS011;68362;45.970;12.646;2023-03-31T00:26:06;18.33;;;11.48;;
78960;SDS011;68362;45.970;12.646;2023-03-31T00:27:10;21.45;;;11.70;;
78960;SDS011;68362;45.970;12.646;2023-03-31T00:28:12;18.25;;;11.43;;
78960;SDS011;68362;45.970;12.646;2023-03-31T00:29:14;18.85;;;12.57;;
78960;SDS011;68362;45.970;12.646;2023-03-31T00:30:16;18.50;;;11.93;;
78960;SDS011;68362;45.970;12.646;2023-03-31T00:31:18;16.30;;;11.35;;
78960;SDS011;68362;45.970;12.646;2023-03-31T00:32:21;16.33;;;11.73;;
78960;SDS011;68362;45.970;12.646;2023-03-31T00:33:23;16.05;;;11.50;;
78960;SDS011;68362;45.970;12.646;2023-03-31T00:34:25;18.95;;;11.43;;
78960;SDS011;68362;45.970;12.646;2023-03-31T00:36:30;19.10;;;11.38;;
78960;SDS011;68362;45.970;12.646;2023-03-31T00:37:32;19.45;;;12.30;;
78960;SDS011;68362;45.970;12.646;2023-03-31T00:38:35;18.00;;;11.25;;
78960;SDS011;68362;45.970;12.646;2023-03-31T00:39:37;18.48;;;11.25;;
78960;SDS011;68362;45.970;12.646;2023-03-31T00:40:43;17.65;;;11.50;;
78960;SDS011;68362;45.970;12.646;2023-03-31T00:41:46;16.80;;;12.02;;
78960;SDS011;68362;45.970;12.646;2023-03-31T00:42:48;16.85;;;12.02;;
78960;SDS011;68362;45.970;12.646;2023-03-31T00:45:26;20.70;;;11.38;;
78960;SDS011;68362;45.970;12.646;2023-03-31T00:46:32;19.95;;;11.63;;
78960;SDS011;68362;45.970;12.646;2023-03-31T00:47:38;21.50;;;13.82;;
78960;SDS011;68362;45.970;12.646;2023-03-31T00:48:49;18.60;;;12.35;;
78960;SDS011;68362;45.970;12.646;2023-03-31T00:49:53;19.95;;;12.80;;
78960;SDS011;68362;45.970;12.646;2023-03-31T00:50:58;21.30;;;13.02;;
78960;SDS011;68362;45.970;12.646;2023-03-31T00:53:09;21.23;;;13.98;;
78960;SDS011;68362;45.970;12.646;2023-03-31T00:54:15;17.45;;;11.82;;
78960;SDS011;68362;45.970;12.646;2023-03-31T00:55:21;17.70;;;11.90;;
78960;SDS011;68362;45.970;12.646;2023-03-31T00:56:29;21.60;;;11.90;;
78960;SDS011;68362;45.970;12.646;2023-03-31T00:57:35;18.85;;;12.20;;
78960;SDS011;68362;45.970;12.646;2023-03-31T00:58:40;20.63;;;12.30;;
78960;SDS011;68362;45.970;12.646;2023-03-31T00:59:57;19.88;;;12.82;;
78960;SDS011;68362;45.970;12.646;2023-03-31T01:01:02;15.93;;;11.32;;
78960;SDS011;68362;45.970;12.646;2023-03-31T01:02:05;18.95;;;12.27;;
78960;SDS011;68362;45.970;12.646;2023-03-31T01:04:10;19.15;;;11.38;;
78960;SDS011;68362;45.970;12.646;2023-03-31T01:05:15;19.30;;;11.77;;
78960;SDS011;68362;45.970;12.646;2023-03-31T01:06:22;18.08;;;12.93;;
78960;SDS011;68362;45.970;12.646;2023-03-31T01:07:28;17.08;;;11.27;;
78960;SDS011;68362;45.970;12.646;2023-03-31T01:08:36;18.67;;;12.40;;
78960;SDS011;68362;45.970;12.646;2023-03-31T01:09:42;20.20;;;12.65;;
78960;SDS011;68362;45.970;12.646;2023-03-31T01:10:49;17.85;;;11.75;;
78960;SDS011;68362;45.970;12.646;2023-03-31T01:11:53;18.88;;;11.98;;
78960;SDS011;68362;45.970;12.646;2023-03-31T01:12:56;22.48;;;12.57;;
78960;SDS011;68362;45.970;12.646;2023-03-31T01:13:58;21.70;;;13.25;;
78960;SDS011;68362;45.970;12.646;2023-03-31T01:15:00;21.17;;;13.45;;
78960;SDS011;68362;45.970;12.646;2023-03-31T01:16:04;25.00;;;13.15;;
78960;SDS011;68362;45.970;12.646;2023-03-31T01:17:07;17.77;;;11.68;;
78960;SDS011;68362;45.970;12.646;2023-03-31T01:18:10;20.50;;;12.20;;
78960;SDS011;68362;45.970;12.646;2023-03-31T01:19:19;20.17;;;12.95;;
78960;SDS011;68362;45.970;12.646;2023-03-31T01:21:00;18.65;;;11.95;;
78960;SDS011;68362;45.970;12.646;2023-03-31T01:41:10;17.27;;;11.25;;
78960;SDS011;68362;45.970;12.646;2023-03-31T01:44:02;18.15;;;11.57;;
78960;SDS011;68362;45.970;12.646;2023-03-31T01:45:24;17.20;;;12.27;;
78960;SDS011;68362;45.970;12.646;2023-03-31T01:46:30;18.85;;;11.32;;
78960;SDS011;68362;45.970;12.646;2023-03-31T01:47:39;18.48;;;11.82;;
78960;SDS011;68362;45.970;12.646;2023-03-31T01:49:56;18.02;;;10.77;;
78960;SDS011;68362;45.970;12.646;2023-03-31T01:54:52;18.05;;;11.70;;
78960;SDS011;68362;45.970;12.646;2023-03-31T01:55:28;17.88;;;11.43;;
78960;SDS011;68362;45.970;12.646;2023-03-31T01:56:48;22.67;;;12.93;;
78960;SDS011;68362;45.970;12.646;2023-03-31T01:58:06;17.83;;;12.00;;
78960;SDS011;68362;45.970;12.646;2023-03-31T01:59:16;18.25;;;11.23;;
78960;SDS011;68362;45.970;12.646;2023-03-31T02:00:26;20.08;;;10.90;;
78960;SDS011;68362;45.970;12.646;2023-03-31T02:01:53;16.80;;;12.13;;
78960;SDS011;68362;45.970;12.646;2023-03-31T02:03:05;16.58;;;10.80;;
78960;SDS011;68362;45.970;12.646;2023-03-31T02:04:17;19.55;;;11.43;;
78960;SDS011;68362;45.970;12.646;2023-03-31T02:05:23;15.50;;;10.57;;
78960;SDS011;68362;45.970;12.646;2023-03-31T02:06:29;16.88;;;10.88;;
78960;SDS011;68362;45.970;12.646;2023-03-31T02:07:41;22.40;;;11.27;;
78960;SDS011;68362;45.970;12.646;2023-03-31T02:08:50;17.17;;;9.85;;
78960;SDS011;68362;45.970;12.646;2023-03-31T02:09:56;18.42;;;10.70;;
78960;SDS011;68362;45.970;12.646;2023-03-31T02:11:02;15.10;;;10.00;;
78960;SDS011;68362;45.970;12.646;2023-03-31T02:12:05;16.75;;;9.77;;
78960;SDS011;68362;45.970;12.646;2023-03-31T02:13:10;15.68;;;10.02;;
78960;SDS011;68362;45.970;12.646;2023-03-31T02:14:17;14.60;;;8.77;;
78960;SDS011;68362;45.970;12.646;2023-03-31T02:15:25;14.50;;;9.15;;
78960;SDS011;68362;45.970;12.646;2023-03-31T02:16:31;20.55;;;9.73;;
78960;SDS011;68362;45.970;12.646;2023-03-31T02:17:38;15.10;;;9.35;;
78960;SDS011;68362;45.970;12.646;2023-03-31T02:18:46;15.52;;;9.77;;
78960;SDS011;68362;45.970;12.646;2023-03-31T02:19:50;14.73;;;9.80;;
78960;SDS011;68362;45.970;12.646;2023-03-31T02:20:54;14.55;;;8.88;;
78960;SDS011;68362;45.970;12.646;2023-03-31T02:21:59;14.30;;;8.98;;
78960;SDS011;68362;45.970;12.646;2023-03-31T02:23:05;15.27;;;9.45;;
78960;SDS011;68362;45.970;12.646;2023-03-31T02:24:08;17.45;;;10.90;;
78960;SDS011;68362;45.970;12.646;2023-03-31T02:25:14;15.80;;;9.38;;
78960;SDS011;68362;45.970;12.646;2023-03-31T02:26:23;11.35;;;7.97;;
78960;SDS011;68362;45.970;12.646;2023-03-31T02:27:32;13.45;;;9.18;;
78960;SDS011;68362;45.970;12.646;2023-03-31T02:28:40;13.82;;;9.20;;
78960;SDS011;68362;45.970;12.646;2023-03-31T02:29:42;12.70;;;7.57;;
78960;SDS011;68362;45.970;12.646;2023-03-31T02:30:45;13.25;;;8.38;;
78960;SDS011;68362;45.970;12.646;2023-03-31T02:33:10;17.83;;;8.38;;
78960;SDS011;68362;45.970;12.646;2023-03-31T02:34:12;12.13;;;7.38;;
78960;SDS011;68362;45.970;12.646;2023-03-31T02:35:16;15.85;;;8.45;;
78960;SDS011;68362;45.970;12.646;2023-03-31T02:36:20;15.38;;;8.43;;
78960;SDS011;68362;45.970;12.646;2023-03-31T02:38:26;14.55;;;8.23;;
78960;SDS011;68362;45.970;12.646;2023-03-31T02:39:30;10.65;;;7.95;;
78960;SDS011;68362;45.970;12.646;2023-03-31T02:40:35;13.57;;;8.02;;
78960;SDS011;68362;45.970;12.646;2023-03-31T02:41:37;10.80;;;8.05;;
78960;SDS011;68362;45.970;12.646;2023-03-31T02:42:39;9.90;;;7.57;;
78960;SDS011;68362;45.970;12.646;2023-03-31T02:44:44;12.85;;;7.35;;
78960;SDS011;68362;45.970;12.646;2023-03-31T02:46:50;15.73;;;7.18;;
78960;SDS011;68362;45.970;12.646;2023-03-31T02:47:53;13.60;;;7.82;;
78960;SDS011;68362;45.970;12.646;2023-03-31T02:48:56;10.45;;;7.07;;
78960;SDS011;68362;45.970;12.646;2023-03-31T02:50:02;13.23;;;7.55;;
78960;SDS011;68362;45.970;12.646;2023-03-31T02:55:02;15.55;;;8.27;;
78960;SDS011;68362;45.970;12.646;2023-03-31T02:56:16;10.63;;;7.10;;
78960;SDS011;68362;45.970;12.646;2023-03-31T03:00:44;7.85;;;5.93;;
78960;SDS011;68362;45.970;12.646;2023-03-31T03:02:09;12.95;;;7.70;;
78960;SDS011;68362;45.970;12.646;2023-03-31T03:03:43;9.60;;;6.47;;
78960;SDS011;68362;45.970;12.646;2023-03-31T03:11:46;10.25;;;5.68;;
78960;SDS011;68362;45.970;12.646;2023-03-31T03:15:20;9.93;;;6.10;;
78960;SDS011;68362;45.970;12.646;2023-03-31T03:16:48;10.40;;;6.28;;
78960;SDS011;68362;45.970;12.646;2023-03-31T03:17:53;9.65;;;6.32;;
78960;SDS011;68362;45.970;12.646;2023-03-31T03:18:57;8.85;;;6.25;;
78960;SDS011;68362;45.970;12.646;2023-03-31T03:20:04;12.80;;;7.50;;
78960;SDS011;68362;45.970;12.646;2023-03-31T03:21:09;13.93;;;5.95;;
78960;SDS011;68362;45.970;12.646;2023-03-31T03:22:11;9.73;;;5.70;;
78960;SDS011;68362;45.970;12.646;2023-03-31T03:23:14;9.98;;;5.72;;
78960;SDS011;68362;45.970;12.646;2023-03-31T03:24:17;9.32;;;6.75;;
78960;SDS011;68362;45.970;12.646;2023-03-31T03:25:19;7.38;;;5.70;;
78960;SDS011;68362;45.970;12.646;2023-03-31T03:26:21;13.73;;;6.05;;
78960;SDS011;68362;45.970;12.646;2023-03-31T03:27:24;10.60;;;6.13;;
78960;SDS011;68362;45.970;12.646;2023-03-31T03:28:26;14.15;;;6.35;;
78960;SDS011;68362;45.970;12.646;2023-03-31T03:29:29;9.60;;;5.70;;
78960;SDS011;68362;45.970;12.646;2023-03-31T03:30:31;11.00;;;5.65;;
78960;SDS011;68362;45.970;12.646;2023-03-31T03:31:33;9.10;;;5.85;;
78960;SDS011;68362;45.970;12.646;2023-03-31T03:32:35;9.88;;;6.35;;
78960;SDS011;68362;45.970;12.646;2023-03-31T03:33:38;11.85;;;6.72;;
78960;SDS011;68362;45.970;12.646;2023-03-31T03:34:40;8.18;;;6.15;;
78960;SDS011;68362;45.970;12.646;2023-03-31T03:35:42;10.18;;;6.35;;
78960;SDS011;68362;45.970;12.646;2023-03-31T03:36:45;8.70;;;5.68;;
78960;SDS011;68362;45.970;12.646;2023-03-31T03:37:47;11.68;;;6.10;;
78960;SDS011;68362;45.970;12.646;2023-03-31T03:38:49;13.32;;;6.82;;
78960;SDS011;68362;45.970;12.646;2023-03-31T03:39:51;9.52;;;6.60;;
78960;SDS011;68362;45.970;12.646;2023-03-31T03:40:53;9.73;;;6.72;;
78960;SDS011;68362;45.970;12.646;2023-03-31T03:41:56;13.00;;;6.75;;
78960;SDS011;68362;45.970;12.646;2023-03-31T03:42:58;10.73;;;6.43;;
78960;SDS011;68362;45.970;12.646;2023-03-31T03:44:00;10.32;;;6.07;;
78960;SDS011;68362;45.970;12.646;2023-03-31T03:45:02;15.68;;;6.88;;
78960;SDS011;68362;45.970;12.646;2023-03-31T03:46:04;10.43;;;7.13;;
78960;SDS011;68362;45.970;12.646;2023-03-31T03:47:07;12.00;;;6.15;;
78960;SDS011;68362;45.970;12.646;2023-03-31T03:48:09;12.00;;;6.60;;
78960;SDS011;68362;45.970;12.646;2023-03-31T03:49:11;12.32;;;6.03;;
78960;SDS011;68362;45.970;12.646;2023-03-31T03:50:13;10.57;;;6.30;;
78960;SDS011;68362;45.970;12.646;2023-03-31T03:51:17;9.50;;;5.72;;
78960;SDS011;68362;45.970;12.646;2023-03-31T03:52:19;9.32;;;5.90;;
78960;SDS011;68362;45.970;12.646;2023-03-31T03:54:24;12.18;;;6.88;;
78960;SDS011;68362;45.970;12.646;2023-03-31T03:55:26;8.63;;;5.35;;
78960;SDS011;68362;45.970;12.646;2023-03-31T03:56:29;12.60;;;6.32;;
78960;SDS011;68362;45.970;12.646;2023-03-31T03:57:31;10.35;;;5.93;;
78960;SDS011;68362;45.970;12.646;2023-03-31T03:58:34;10.20;;;6.20;;
78960;SDS011;68362;45.970;12.646;2023-03-31T03:59:36;13.55;;;6.32;;
78960;SDS011;68362;45.970;12.646;2023-03-31T04:00:38;11.18;;;6.90;;
78960;SDS011;68362;45.970;12.646;2023-03-31T04:01:39;11.30;;;7.22;;
78960;SDS011;68362;45.970;12.646;2023-03-31T04:02:42;10.32;;;7.20;;
78960;SDS011;68362;45.970;12.646;2023-03-31T04:03:44;17.50;;;7.53;;
78960;SDS011;68362;45.970;12.646;2023-03-31T04:04:46;12.02;;;7.60;;
78960;SDS011;68362;45.970;12.646;2023-03-31T04:05:48;14.95;;;8.27;;
78960;SDS011;68362;45.970;12.646;2023-03-31T04:06:51;13.32;;;8.30;;
78960;SDS011;68362;45.970;12.646;2023-03-31T04:07:53;13.63;;;8.57;;
78960;SDS011;68362;45.970;12.646;2023-03-31T04:08:55;13.20;;;7.85;;
78960;SDS011;68362;45.970;12.646;2023-03-31T04:09:57;13.77;;;8.88;;
78960;SDS011;68362;45.970;12.646;2023-03-31T04:10:59;14.80;;;9.13;;
78960;SDS011;68362;45.970;12.646;2023-03-31T04:12:01;19.35;;;10.98;;
78960;SDS011;68362;45.970;12.646;2023-03-31T04:13:03;13.98;;;8.95;;
78960;SDS011;68362;45.970;12.646;2023-03-31T04:14:05;16.50;;;9.65;;
78960;SDS011;68362;45.970;12.646;2023-03-31T04:15:07;16.08;;;10.48;;
78960;SDS011;68362;45.970;12.646;2023-03-31T04:16:10;15.43;;;10.45;;
78960;SDS011;68362;45.970;12.646;2023-03-31T04:18:16;17.25;;;11.02;;
78960;SDS011;68362;45.970;12.646;2023-03-31T04:19:24;17.05;;;10.80;;
78960;SDS011;68362;45.970;12.646;2023-03-31T04:20:28;18.42;;;11.43;;
78960;SDS011;68362;45.970;12.646;2023-03-31T04:21:32;19.00;;;11.88;;
78960;SDS011;68362;45.970;12.646;2023-03-31T04:22:35;18.90;;;11.57;;
78960;SDS011;68362;45.970;12.646;2023-03-31T04:23:49;21.58;;;11.68;;
78960;SDS011;68362;45.970;12.646;2023-03-31T04:25:06;21.33;;;12.32;;
78960;SDS011;68362;45.970;12.646;2023-03-31T04:26:17;18.45;;;10.88;;
78960;SDS011;68362;45.970;12.646;2023-03-31T04:27:27;16.85;;;11.05;;
78960;SDS011;68362;45.970;12.646;2023-03-31T04:28:29;15.65;;;11.25;;
78960;SDS011;68362;45.970;12.646;2023-03-31T04:29:35;18.42;;;11.63;;
78960;SDS011;68362;45.970;12.646;2023-03-31T04:30:37;20.85;;;10.50;;
78960;SDS011;68362;45.970;12.646;2023-03-31T04:31:40;18.13;;;11.18;;
78960;SDS011;68362;45.970;12.646;2023-03-31T04:32:44;21.90;;;11.77;;
78960;SDS011;68362;45.970;12.646;2023-03-31T04:33:46;19.05;;;11.73;;
78960;SDS011;68362;45.970;12.646;2023-03-31T04:34:51;18.73;;;11.77;;
78960;SDS011;68362;45.970;12.646;2023-03-31T04:36:04;17.77;;;11.45;;
78960;SDS011;68362;45.970;12.646;2023-03-31T04:37:18;17.73;;;11.07;;
78960;SDS011;68362;45.970;12.646;2023-03-31T04:38:21;20.80;;;11.95;;
78960;SDS011;68362;45.970;12.646;2023-03-31T04:39:24;16.38;;;10.63;;
78960;SDS011;68362;45.970;12.646;2023-03-31T04:40:31;20.15;;;11.35;;
78960;SDS011;68362;45.970;12.646;2023-03-31T04:41:33;16.10;;;10.32;;
78960;SDS011;68362;45.970;12.646;2023-03-31T04:42:35;17.42;;;11.85;;
78960;SDS011;68362;45.970;12.646;2023-03-31T04:43:37;16.40;;;11.68;;
78960;SDS011;68362;45.970;12.646;2023-03-31T04:44:39;16.30;;;10.30;;
78960;SDS011;68362;45.970;12.646;2023-03-31T04:45:41;17.80;;;11.13;;
78960;SDS011;68362;45.970;12.646;2023-03-31T04:46:44;17.45;;;11.48;;
78960;SDS011;68362;45.970;12.646;2023-03-31T04:47:46;21.85;;;12.05;;
78960;SDS011;68362;45.970;12.646;2023-03-31T04:48:48;18.23;;;11.95;;
78960;SDS011;68362;45.970;12.646;2023-03-31T04:49:50;19.83;;;11.95;;
78960;SDS011;68362;45.970;12.646;2023-03-31T04:50:52;17.02;;;11.55;;
78960;SDS011;68362;45.970;12.646;2023-03-31T04:51:54;19.55;;;11.40;;
78960;SDS011;68362;45.970;12.646;2023-03-31T04:52:56;18.00;;;10.52;;
78960;SDS011;68362;45.970;12.646;2023-03-31T04:53:58;16.63;;;11.32;;
78960;SDS011;68362;45.970;12.646;2023-03-31T04:55:00;16.73;;;11.05;;
78960;SDS011;68362;45.970;12.646;2023-03-31T04:56:02;14.85;;;10.23;;
78960;SDS011;68362;45.970;12.646;2023-03-31T04:57:05;19.55;;;11.63;;
78960;SDS011;68362;45.970;12.646;2023-03-31T04:58:07;17.00;;;10.60;;
78960;SDS011;68362;45.970;12.646;2023-03-31T04:59:09;18.20;;;12.10;;
78960;SDS011;68362;45.970;12.646;2023-03-31T05:00:12;17.63;;;11.55;;
78960;SDS011;68362;45.970;12.646;2023-03-31T05:01:14;17.52;;;11.10;;
78960;SDS011;68362;45.970;12.646;2023-03-31T05:02:20;18.23;;;11.82;;
78960;SDS011;68362;45.970;12.646;2023-03-31T05:03:26;19.20;;;12.38;;
78960;SDS011;68362;45.970;12.646;2023-03-31T05:04:28;14.88;;;9.93;;
78960;SDS011;68362;45.970;12.646;2023-03-31T05:05:30;16.15;;;10.55;;
78960;SDS011;68362;45.970;12.646;2023-03-31T05:06:32;17.48;;;11.70;;
78960;SDS011;68362;45.970;12.646;2023-03-31T05:07:34;15.45;;;10.25;;
78960;SDS011;68362;45.970;12.646;2023-03-31T05:08:36;16.90;;;10.90;;
78960;SDS011;68362;45.970;12.646;2023-03-31T05:09:38;15.48;;;10.68;;
78960;SDS011;68362;45.970;12.646;2023-03-31T05:10:40;17.17;;;10.85;;
78960;SDS011;68362;45.970;12.646;2023-03-31T05:11:42;16.35;;;10.50;;
78960;SDS011;68362;45.970;12.646;2023-03-31T05:12:44;19.98;;;10.85;;
78960;SDS011;68362;45.970;12.646;2023-03-31T05:13:46;14.77;;;10.00;;
78960;SDS011;68362;45.970;12.646;2023-03-31T05:14:49;17.33;;;10.93;;
78960;SDS011;68362;45.970;12.646;2023-03-31T05:15:51;17.08;;;11.10;;
78960;SDS011;68362;45.970;12.646;2023-03-31T05:16:54;14.98;;;9.90;;
78960;SDS011;68362;45.970;12.646;2023-03-31T05:17:58;14.88;;;9.80;;
78960;SDS011;68362;45.970;12.646;2023-03-31T05:19:01;17.08;;;10.65;;
78960;SDS011;68362;45.970;12.646;2023-03-31T05:20:03;17.67;;;11.10;;
78960;SDS011;68362;45.970;12.646;2023-03-31T05:22:14;19.25;;;10.30;;
78960;SDS011;68362;45.970;12.646;2023-03-31T05:23:21;20.40;;;10.88;;
78960;SDS011;68362;45.970;12.646;2023-03-31T05:24:23;17.85;;;10.68;;
78960;SDS011;68362;45.970;12.646;2023-03-31T05:25:25;16.58;;;10.43;;
78960;SDS011;68362;45.970;12.646;2023-03-31T05:26:33;16.10;;;10.30;;
78960;SDS011;68362;45.970;12.646;2023-03-31T05:27:35;16.38;;;10.82;;
78960;SDS011;68362;45.970;12.646;2023-03-31T05:28:37;15.82;;;10.50;;
78960;SDS011;68362;45.970;12.646;2023-03-31T05:29:39;14.80;;;10.65;;
78960;SDS011;68362;45.970;12.646;2023-03-31T05:30:41;16.48;;;10.23;;
78960;SDS011;68362;45.970;12.646;2023-03-31T05:31:43;17.05;;;10.00;;
78960;SDS011;68362;45.970;12.646;2023-03-31T05:33:48;15.43;;;10.32;;
78960;SDS011;68362;45.970;12.646;2023-03-31T05:34:50;16.85;;;10.10;;
78960;SDS011;68362;45.970;12.646;2023-03-31T05:35:53;17.80;;;11.10;;
78960;SDS011;68362;45.970;12.646;2023-03-31T05:36:56;15.52;;;10.38;;
78960;SDS011;68362;45.970;12.646;2023-03-31T05:37:59;16.58;;;10.52;;
78960;SDS011;68362;45.970;12.646;2023-03-31T05:39:01;14.05;;;10.18;;
78960;SDS011;68362;45.970;12.646;2023-03-31T05:40:03;16.35;;;9.82;;
78960;SDS011;68362;45.970;12.646;2023-03-31T05:41:07;15.98;;;10.13;;
78960;SDS011;68362;45.970;12.646;2023-03-31T05:42:10;15.77;;;10.63;;
78960;SDS011;68362;45.970;12.646;2023-03-31T05:43:12;17.08;;;10.48;;
78960;SDS011;68362;45.970;12.646;2023-03-31T05:44:15;20.02;;;11.55;;
78960;SDS011;68362;45.970;12.646;2023-03-31T05:45:17;14.90;;;10.13;;
78960;SDS011;68362;45.970;12.646;2023-03-31T05:46:18;16.15;;;11.82;;
78960;SDS011;68362;45.970;12.646;2023-03-31T05:47:20;16.65;;;10.93;;
78960;SDS011;68362;45.970;12.646;2023-03-31T05:48:24;17.13;;;9.77;;
78960;SDS011;68362;45.970;12.646;2023-03-31T05:49:26;18.15;;;11.02;;
78960;SDS011;68362;45.970;12.646;2023-03-31T05:50:28;17.40;;;11.05;;
78960;SDS011;68362;45.970;12.646;2023-03-31T05:51:30;17.45;;;10.40;;
78960;SDS011;68362;45.970;12.646;2023-03-31T05:52:32;18.05;;;11.00;;
78960;SDS011;68362;45.970;12.646;2023-03-31T05:53:34;17.77;;;10.70;;
78960;SDS011;68362;45.970;12.646;2023-03-31T05:54:36;18.20;;;11.00;;
78960;SDS011;68362;45.970;12.646;2023-03-31T05:55:38;15.95;;;11.52;;
78960;SDS011;68362;45.970;12.646;2023-03-31T05:56:41;16.02;;;10.02;;
78960;SDS011;68362;45.970;12.646;2023-03-31T05:57:43;15.40;;;9.95;;
78960;SDS011;68362;45.970;12.646;2023-03-31T05:58:45;15.10;;;10.57;;
78960;SDS011;68362;45.970;12.646;2023-03-31T05:59:47;17.45;;;9.73;;
78960;SDS011;68362;45.970;12.646;2023-03-31T06:00:49;14.93;;;9.48;;
78960;SDS011;68362;45.970;12.646;2023-03-31T06:01:54;15.68;;;9.50;;
78960;SDS011;68362;45.970;12.646;2023-03-31T06:02:56;16.35;;;9.30;;
78960;SDS011;68362;45.970;12.646;2023-03-31T06:03:59;14.77;;;9.43;;
78960;SDS011;68362;45.970;12.646;2023-03-31T06:05:02;13.77;;;8.65;;
78960;SDS011;68362;45.970;12.646;2023-03-31T06:06:04;11.63;;;8.75;;
78960;SDS011;68362;45.970;12.646;2023-03-31T06:07:08;12.38;;;8.10;;
78960;SDS011;68362;45.970;12.646;2023-03-31T06:08:10;13.45;;;8.88;;
78960;SDS011;68362;45.970;12.646;2023-03-31T06:09:13;12.88;;;8.88;;
78960;SDS011;68362;45.970;12.646;2023-03-31T06:10:15;15.15;;;9.48;;
78960;SDS011;68362;45.970;12.646;2023-03-31T06:11:18;13.75;;;9.82;;
78960;SDS011;68362;45.970;12.646;2023-03-31T06:12:21;13.30;;;8.90;;
78960;SDS011;68362;45.970;12.646;2023-03-31T06:13:24;13.40;;;9.00;;
78960;SDS011;68362;45.970;12.646;2023-03-31T06:14:26;13.68;;;8.88;;
78960;SDS011;68362;45.970;12.646;2023-03-31T06:15:28;15.48;;;8.25;;
78960;SDS011;68362;45.970;12.646;2023-03-31T06:16:31;13.80;;;9.15;;
78960;SDS011;68362;45.970;12.646;2023-03-31T06:17:33;12.60;;;8.40;;
78960;SDS011;68362;45.970;12.646;2023-03-31T06:18:39;14.55;;;8.23;;
78960;SDS011;68362;45.970;12.646;2023-03-31T06:19:41;16.13;;;8.82;;
78960;SDS011;68362;45.970;12.646;2023-03-31T06:20:43;14.25;;;7.53;;
78960;SDS011;68362;45.970;12.646;2023-03-31T06:21:45;17.38;;;8.90;;
78960;SDS011;68362;45.970;12.646;2023-03-31T06:22:47;12.63;;;9.27;;
78960;SDS011;68362;45.970;12.646;2023-03-31T06:23:49;21.60;;;9.43;;
78960;SDS011;68362;45.970;12.646;2023-03-31T06:24:55;12.70;;;8.75;;
78960;SDS011;68362;45.970;12.646;2023-03-31T06:25:59;11.77;;;8.80;;
78960;SDS011;68362;45.970;12.646;2023-03-31T06:27:05;11.75;;;7.90;;
78960;SDS011;68362;45.970;12.646;2023-03-31T06:28:07;11.32;;;7.47;;
78960;SDS011;68362;45.970;12.646;2023-03-31T06:29:09;13.50;;;8.00;;
78960;SDS011;68362;45.970;12.646;2023-03-31T06:30:11;18.30;;;9.75;;
78960;SDS011;68362;45.970;12.646;2023-03-31T06:31:15;12.63;;;7.55;;
78960;SDS011;68362;45.970;12.646;2023-03-31T06:32:18;12.23;;;7.97;;
78960;SDS011;68362;45.970;12.646;2023-03-31T06:33:20;13.30;;;7.28;;
78960;SDS011;68362;45.970;12.646;2023-03-31T06:34:22;11.65;;;7.85;;
78960;SDS011;68362;45.970;12.646;2023-03-31T06:35:24;10.57;;;7.97;;
78960;SDS011;68362;45.970;12.646;2023-03-31T06:36:26;11.07;;;7.00;;
78960;SDS011;68362;45.970;12.646;2023-03-31T06:37:29;11.50;;;6.78;;
78960;SDS011;68362;45.970;12.646;2023-03-31T06:38:32;10.00;;;7.15;;
78960;SDS011;68362;45.970;12.646;2023-03-31T06:39:35;12.98;;;7.10;;
78960;SDS011;68362;45.970;12.646;2023-03-31T06:40:37;11.05;;;7.50;;
78960;SDS011;68362;45.970;12.646;2023-03-31T06:41:39;13.82;;;7.05;;
78960;SDS011;68362;45.970;12.646;2023-03-31T06:42:41;13.05;;;7.40;;
78960;SDS011;68362;45.970;12.646;2023-03-31T06:43:43;11.65;;;7.18;;
78960;SDS011;68362;45.970;12.646;2023-03-31T06:44:45;13.18;;;7.28;;
78960;SDS011;68362;45.970;12.646;2023-03-31T06:45:47;10.10;;;7.13;;
78960;SDS011;68362;45.970;12.646;2023-03-31T06:46:51;15.93;;;7.15;;
78960;SDS011;68362;45.970;12.646;2023-03-31T06:47:53;11.68;;;7.07;;
78960;SDS011;68362;45.970;12.646;2023-03-31T06:48:55;11.38;;;6.57;;
78960;SDS011;68362;45.970;12.646;2023-03-31T06:49:57;10.60;;;7.63;;
78960;SDS011;68362;45.970;12.646;2023-03-31T06:51:00;8.57;;;5.70;;
78960;SDS011;68362;45.970;12.646;2023-03-31T06:52:04;10.77;;;6.60;;
78960;SDS011;68362;45.970;12.646;2023-03-31T06:53:07;9.18;;;6.25;;
78960;SDS011;68362;45.970;12.646;2023-03-31T06:54:09;10.35;;;6.35;;
78960;SDS011;68362;45.970;12.646;2023-03-31T06:55:12;9.48;;;6.43;;
78960;SDS011;68362;45.970;12.646;2023-03-31T06:56:16;11.63;;;6.63;;
78960;SDS011;68362;45.970;12.646;2023-03-31T06:57:18;10.95;;;7.00;;
78960;SDS011;68362;45.970;12.646;2023-03-31T06:58:21;10.13;;;6.50;;
78960;SDS011;68362;45.970;12.646;2023-03-31T06:59:23;9.60;;;6.63;;
78960;SDS011;68362;45.970;12.646;2023-03-31T07:00:25;9.13;;;5.95;;
78960;SDS011;68362;45.970;12.646;2023-03-31T07:01:28;10.25;;;5.70;;
78960;SDS011;68362;45.970;12.646;2023-03-31T07:02:30;8.63;;;6.53;;
78960;SDS011;68362;45.970;12.646;2023-03-31T07:03:32;12.00;;;6.53;;
78960;SDS011;68362;45.970;12.646;2023-03-31T07:04:35;10.60;;;6.35;;
78960;SDS011;68362;45.970;12.646;2023-03-31T07:05:37;10.05;;;6.28;;
78960;SDS011;68362;45.970;12.646;2023-03-31T07:06:39;11.63;;;6.80;;
78960;SDS011;68362;45.970;12.646;2023-03-31T07:07:42;11.23;;;6.47;;
78960;SDS011;68362;45.970;12.646;2023-03-31T07:08:46;12.93;;;5.85;;